Nicopolis — SVCR2 — position and weather

sailwx.info

Track history (hours):
 
Tides and Currents Weather Stations Pressure Air Temp Water Temp Dewpoint Dewpoint Depression Visibility Wind Speed Wind Dir Waves Ship Positions

Nicopolis

Last reported at 2017-Oct-07 14:52 UTC. Time now 2017-Oct-18 11:21 UTC.
Position N 33°57' W 124°07'.
Warning: this ship's position is 10 days out of date.

Length 228 m; draft 9 m.

Type: Tanker. MMSI: 241528000.

Date/timePositionNaut miles runAvg speedWind from/ knotsBaromVisibWave heightAir tempDewpointWater temp
2017-Oct-07 14:52N 33°57' W 124°07'513.5
2017-Oct-07 14:30N 33°58' W 124°01'713.8
2017-Oct-07 14:00N 33°59' W 123°53'813.5
2017-Oct-07 13:23N 34°01' W 123°43'513.4
2017-Oct-07 13:00N 34°02' W 123°37'713.4
2017-Oct-07 12:30N 34°03' W 123°29'713.4
2017-Oct-07 12:00N 34°04' W 123°21'713.6
2017-Oct-07 11:31N 34°05' W 123°13'813.5
2017-Oct-07 10:53N 34°07' W 123°03'1113.3
2017-Oct-07 10:05N 34°08' W 122°51'113.3
2017-Oct-07 10:00N 34°09' W 122°50'713.3
2017-Oct-07 09:30N 34°10' W 122°42'713.2
2017-Oct-07 09:01N 34°11' W 122°34'713.5
2017-Oct-07 08:30N 34°12' W 122°26'612.8
2017-Oct-07 08:01N 34°13' W 122°18'813.1
2017-Oct-07 07:22N 34°15' W 122°08'613.5
2017-Oct-07 06:58N 34°16' W 122°02'613.5
2017-Oct-07 06:30N 34°17' W 121°54'613.1
2017-Oct-07 06:00N 34°18' W 121°46'713.4
2017-Oct-07 05:28N 34°19' W 121°38'713.8
2017-Oct-07 04:57N 34°21' W 121°29'614.1
2017-Oct-07 04:31N 34°22' W 121°22'713.7
2017-Oct-07 03:58N 34°23' W 121°13'713.9
2017-Oct-07 03:30N 34°24' W 121°05'714.0
2017-Oct-07 02:59N 34°25' W 120°57'713.4
2017-Oct-07 02:30N 34°26' W 120°49'612.8
2017-Oct-07 02:00N 34°24' W 120°41'612.3
2017-Oct-07 01:30N 34°22' W 120°34'612.1
2017-Oct-07 01:00N 34°21' W 120°27'612.4
2017-Oct-07 00:30N 34°19' W 120°20'612.3
2017-Oct-07 00:00N 34°17' W 120°13'611.9
2017-Oct-06 23:31N 34°16' W 120°06'611.8
2017-Oct-06 23:00N 34°14' W 119°59'611.9
2017-Oct-06 22:30N 34°13' W 119°52'612.2
2017-Oct-06 22:00N 34°11' W 119°45'611.9
2017-Oct-06 21:30N 34°09' W 119°38'612.3
2017-Oct-06 21:00N 34°08' W 119°31'612.4
2017-Oct-06 20:31N 34°06' W 119°24'612.4
2017-Oct-06 20:01N 34°05' W 119°16'612.1
2017-Oct-06 19:31N 34°02' W 119°10'612.1
2017-Oct-06 19:01N 33°59' W 119°04'611.6
2017-Oct-06 18:30N 33°56' W 118°58'611.8
2017-Oct-06 18:00N 33°53' W 118°51'611.5
2017-Oct-06 17:31N 33°50' W 118°45'611.6
2017-Oct-06 17:00N 33°47' W 118°39'611.8
2017-Oct-06 16:31N 33°44' W 118°33'611.6
2017-Oct-06 16:01N 33°41' W 118°27'611.5
2017-Oct-06 15:31N 33°39' W 118°21'611.5
2017-Oct-06 15:01N 33°39' W 118°14'4 8.9
2017-Oct-06 14:30N 33°42' W 118°11'2 4.4
2017-Oct-06 14:00N 33°43' W 118°14'0 0.0
2017-Oct-06 13:30N 33°43' W 118°14'0 0.0
2017-Oct-06 13:00N 33°43' W 118°14'0 0.1
2017-Oct-06 12:30N 33°43' W 118°14'0 0.0
2017-Oct-06 11:51N 33°43' W 118°14'0 0.0
2017-Oct-06 11:30N 33°43' W 118°14'0 0.0
2017-Oct-06 11:00N 33°43' W 118°14'0 0.0
2017-Oct-06 10:30N 33°43' W 118°14'0 0.0
2017-Oct-06 10:00N 33°43' W 118°14'0 0.1
2017-Oct-06 09:30N 33°43' W 118°14'0 0.0
2017-Oct-06 09:00N 33°43' W 118°14'0 0.0
2017-Oct-06 08:30N 33°43' W 118°14'0 0.0
2017-Oct-06 07:57N 33°43' W 118°14'0 0.0
2017-Oct-06 07:30N 33°43' W 118°14'0 0.0
2017-Oct-06 07:00N 33°43' W 118°14'0 0.0
2017-Oct-06 06:30N 33°43' W 118°14'0 0.0
2017-Oct-06 06:00N 33°43' W 118°14'0 0.1
2017-Oct-06 05:30N 33°43' W 118°14'0 0.1
2017-Oct-06 05:00N 33°43' W 118°14'0 0.1
2017-Oct-06 04:30N 33°43' W 118°14'0 0.1
2017-Oct-06 04:00N 33°43' W 118°14'0 0.0
2017-Oct-06 03:30N 33°43' W 118°14'0 0.1
2017-Oct-06 02:57N 33°43' W 118°14'0 0.0
2017-Oct-06 02:30N 33°43' W 118°14'0 0.0
2017-Oct-06 02:00N 33°43' W 118°14'0 0.2
2017-Oct-06 01:30N 33°43' W 118°14'0 0.9
2017-Oct-06 01:01N 33°43' W 118°14'3 5.2
2017-Oct-06 00:30N 33°45' W 118°16'0 0.8
2017-Oct-06 00:00N 33°45' W 118°16'0 0.0
2017-Oct-05 23:07N 33°45' W 118°16'0 0.0
2017-Oct-05 22:55N 33°45' W 118°16'0 0.0
2017-Oct-05 22:28N 33°45' W 118°16'0 0.0
2017-Oct-05 21:55N 33°45' W 118°16'0 0.0
2017-Oct-05 21:28N 33°45' W 118°16'0 0.0
2017-Oct-05 20:58N 33°45' W 118°16'0 0.0
2017-Oct-05 20:19N 33°45' W 118°16'0 0.0
2017-Oct-05 19:49N 33°45' W 118°16'0 0.0
2017-Oct-05 19:28N 33°45' W 118°16'0 0.0
2017-Oct-05 18:55N 33°45' W 118°16'0 0.0
2017-Oct-05 18:25N 33°45' W 118°16'0 0.0
2017-Oct-05 17:55N 33°45' W 118°16'0 0.0
2017-Oct-05 17:25N 33°45' W 118°16'0 0.0
2017-Oct-05 16:55N 33°45' W 118°16'0 0.0
2017-Oct-05 15:28N 33°45' W 118°16'0 0.0
2017-Oct-05 14:43N 33°45' W 118°16'0 0.0
2017-Oct-05 14:19N 33°45' W 118°16'0 0.0
2017-Oct-05 13:58N 33°45' W 118°16'0 0.0
2017-Oct-05 13:16N 33°45' W 118°16'0 0.0
2017-Oct-05 12:55N 33°45' W 118°16'0 0.0
2017-Oct-05 12:25N 33°45' W 118°16'0 0.0
2017-Oct-05 11:58N 33°45' W 118°16'0 0.0
2017-Oct-05 11:28N 33°45' W 118°16'0 0.0
2017-Oct-05 10:58N 33°45' W 118°16'0 0.0
2017-Oct-05 10:25N 33°45' W 118°16'0 0.0
2017-Oct-05 09:58N 33°45' W 118°16'0 0.0
2017-Oct-05 09:28N 33°45' W 118°16'0 0.0
2017-Oct-05 08:58N 33°45' W 118°16'0 0.0
2017-Oct-05 08:13N 33°45' W 118°16'0 0.0
2017-Oct-05 07:49N 33°45' W 118°16'0 0.0
2017-Oct-05 07:19N 33°45' W 118°16'0 0.0
2017-Oct-05 06:58N 33°45' W 118°16'0 0.0
2017-Oct-05 06:28N 33°45' W 118°16'0 0.0
2017-Oct-05 05:55N 33°45' W 118°16'0 0.0
2017-Oct-05 05:25N 33°45' W 118°16'0 0.0
2017-Oct-05 04:55N 33°45' W 118°16'0 0.0
2017-Oct-05 04:28N 33°45' W 118°16'0 0.0
2017-Oct-05 03:58N 33°45' W 118°16'0 0.0
2017-Oct-05 03:25N 33°45' W 118°16'0 0.0
2017-Oct-05 02:55N 33°45' W 118°16'0 0.0
2017-Oct-05 02:28N 33°45' W 118°16'0 0.0
2017-Oct-05 01:55N 33°45' W 118°16'0 0.0
2017-Oct-05 01:28N 33°45' W 118°16'0 0.0
2017-Oct-05 00:55N 33°45' W 118°16'0 0.0
2017-Oct-05 00:28N 33°45' W 118°16'0 0.0
2017-Oct-04 23:37N 33°45' W 118°16'0 0.0
2017-Oct-04 23:13N 33°45' W 118°16'0 0.0
2017-Oct-04 22:55N 33°45' W 118°16'0 0.0
2017-Oct-04 22:25N 33°45' W 118°16'0 0.0
2017-Oct-04 21:58N 33°45' W 118°16'0 0.0
2017-Oct-04 21:28N 33°45' W 118°16'0 0.0
2017-Oct-04 20:52N 33°45' W 118°16'0 0.0
2017-Oct-04 19:49N 33°45' W 118°16'0 0.0
2017-Oct-04 11:01N 33°45' W 118°16'0 0.0
2017-Oct-04 11:00N 33°45' W 118°16'2 3.0
2017-Oct-04 10:11N 33°43' W 118°16'2 7.8
2017-Oct-04 09:59N 33°43' W 118°14'3 6.8
2017-Oct-04 09:30N 33°44' W 118°10'0 0.1
2017-Oct-04 08:52N 33°44' W 118°10'0 0.0
2017-Oct-04 08:28N 33°44' W 118°10'0 0.0
2017-Oct-04 06:58N 33°44' W 118°10'0 0.0
2017-Oct-04 05:58N 33°44' W 118°10'0 0.0
2017-Oct-04 04:58N 33°44' W 118°10'0 0.1
2017-Oct-04 02:28N 33°44' W 118°10'0 0.0
2017-Oct-03 23:28N 33°44' W 118°10'0 0.1
2017-Oct-03 22:58N 33°44' W 118°10'0 0.0
2017-Oct-03 21:28N 33°44' W 118°10'0 0.0
2017-Oct-03 17:58N 33°44' W 118°10'0 0.0
2017-Oct-03 13:52N 33°44' W 118°10'0 0.2
2017-Oct-03 13:22N 33°44' W 118°10'0 0.1
2017-Oct-03 12:40N 33°44' W 118°10'0 0.1
2017-Oct-03 12:22N 33°44' W 118°10'0 0.1
2017-Oct-03 11:58N 33°44' W 118°10'0 0.0
2017-Oct-03 11:22N 33°44' W 118°10'0 0.0
2017-Oct-03 10:43N 33°44' W 118°10'0 0.2
2017-Oct-03 10:25N 33°44' W 118°10'0 0.1
2017-Oct-03 09:07N 33°44' W 118°10'0 0.0
2017-Oct-03 08:52N 33°44' W 118°10'0 0.0
2017-Oct-03 07:46N 33°44' W 118°10'0 0.0
2017-Oct-03 07:28N 33°44' W 118°10'0 0.0
2017-Oct-03 06:58N 33°44' W 118°10'0 0.0
2017-Oct-03 06:28N 33°44' W 118°10'0 0.0
2017-Oct-03 05:58N 33°44' W 118°10'0 0.1
2017-Oct-03 05:28N 33°44' W 118°10'0 0.1
2017-Oct-03 04:40N 33°44' W 118°10'0 0.1
2017-Oct-03 04:22N 33°44' W 118°10'0 0.1
2017-Oct-03 03:58N 33°44' W 118°10'0 0.1
2017-Oct-03 03:22N 33°44' W 118°10'0 0.0
2017-Oct-03 02:58N 33°44' W 118°10'0 0.0
2017-Oct-03 02:28N 33°44' W 118°10'0 0.0
2017-Oct-03 01:55N 33°44' W 118°10'0 0.0
2017-Oct-03 01:22N 33°44' W 118°10'0 0.0
2017-Oct-03 00:58N 33°44' W 118°10'0 0.0
2017-Oct-03 00:22N 33°44' W 118°10'0 0.1
2017-Oct-02 23:58N 33°44' W 118°10'0 0.0
2017-Oct-02 23:28N 33°44' W 118°10'0 0.0
2017-Oct-02 22:46N 33°44' W 118°10'0 0.0
2017-Oct-02 22:22N 33°44' W 118°10'0 0.0
2017-Oct-02 21:52N 33°44' W 118°10'0 0.0
2017-Oct-02 21:28N 33°44' W 118°10'0 0.1
2017-Oct-02 20:40N 33°44' W 118°10'0 0.0
2017-Oct-02 20:22N 33°44' W 118°10'0 0.0
2017-Oct-02 19:04N 33°44' W 118°10'0 0.1
2017-Oct-02 18:58N 33°44' W 118°10'0 0.0
2017-Oct-02 18:28N 33°44' W 118°10'0 0.0
2017-Oct-02 17:58N 33°44' W 118°10'0 0.0
2017-Oct-02 17:22N 33°44' W 118°10'0 0.0
2017-Oct-02 14:46N 33°44' W 118°10'0 0.0
2017-Oct-02 14:22N 33°44' W 118°10'0 0.1
2017-Oct-02 13:58N 33°44' W 118°10'0 0.1
2017-Oct-02 13:28N 33°44' W 118°10'0 0.1
2017-Oct-02 12:58N 33°44' W 118°10'0 0.1
2017-Oct-02 12:22N 33°44' W 118°10'0 0.0
2017-Oct-02 11:52N 33°44' W 118°10'0 0.0
2017-Oct-02 08:04N 33°44' W 118°10'0 0.0
2017-Oct-02 05:31N 33°44' W 118°10'0 0.0
2017-Oct-02 05:28N 33°44' W 118°10'0 0.0
2017-Oct-02 04:40N 33°44' W 118°10'0 0.0
2017-Oct-02 03:52N 33°44' W 118°10'0 0.1
2017-Oct-02 02:49N 33°44' W 118°10'0 0.0
2017-Oct-02 02:28N 33°44' W 118°10'0 0.0
2017-Oct-02 01:46N 33°44' W 118°10'0 0.0
2017-Oct-02 01:28N 33°44' W 118°10'0 0.0
2017-Oct-02 00:58N 33°44' W 118°10'0 0.0
2017-Oct-02 00:28N 33°44' W 118°10'0 0.1
2017-Oct-01 23:55N 33°44' W 118°10'0 0.0
2017-Oct-01 23:22N 33°44' W 118°10'0 0.1
2017-Oct-01 22:22N 33°44' W 118°10'0 0.1
2017-Oct-01 21:52N 33°44' W 118°10'0 0.0
2017-Oct-01 21:28N 33°44' W 118°10'0 0.1
2017-Oct-01 20:58N 33°44' W 118°10'0 0.0
2017-Oct-01 19:52N 33°44' W 118°10'0 0.0
2017-Oct-01 19:22N 33°44' W 118°10'0 0.1
2017-Oct-01 18:49N 33°44' W 118°10'0 0.1
2017-Oct-01 18:19N 33°44' W 118°10'0 0.1
2017-Oct-01 17:52N 33°44' W 118°10'0 0.0
2017-Oct-01 17:28N 33°44' W 118°10'0 0.0
2017-Oct-01 16:58N 33°44' W 118°10'0 0.0
2017-Oct-01 16:28N 33°44' W 118°10'0 0.1
2017-Oct-01 15:58N 33°44' W 118°10'0 0.0
2017-Oct-01 15:28N 33°44' W 118°10'0 0.0
2017-Oct-01 14:58N 33°44' W 118°10'0 0.0
2017-Oct-01 14:25N 33°44' W 118°10'0 0.0
2017-Oct-01 13:58N 33°44' W 118°10'0 0.0
2017-Oct-01 13:28N 33°44' W 118°10'0 0.1
2017-Oct-01 12:58N 33°44' W 118°10'0 0.1
2017-Oct-01 12:25N 33°44' W 118°10'0 0.1
2017-Oct-01 11:58N 33°44' W 118°10'0 0.0
2017-Oct-01 11:28N 33°44' W 118°10'0 0.0
2017-Oct-01 10:58N 33°44' W 118°10'0 0.0
2017-Oct-01 10:28N 33°44' W 118°10'0 0.0
2017-Oct-01 09:58N 33°44' W 118°10'0 0.1
2017-Oct-01 09:28N 33°44' W 118°10'0 0.2
2017-Oct-01 08:58N 33°44' W 118°10'0 0.2
2017-Oct-01 08:28N 33°44' W 118°10'0 0.1
2017-Oct-01 07:58N 33°44' W 118°10'0 0.0
2017-Oct-01 07:28N 33°44' W 118°10'0 0.0
2017-Oct-01 06:58N 33°44' W 118°10'0 0.0
2017-Oct-01 06:28N 33°44' W 118°10'0 0.0
2017-Oct-01 05:58N 33°44' W 118°10'0 0.0
2017-Oct-01 05:28N 33°44' W 118°10'0 0.0
2017-Oct-01 04:58N 33°44' W 118°10'0 0.0
2017-Oct-01 04:28N 33°44' W 118°10'0 0.0
2017-Oct-01 03:55N 33°44' W 118°10'0 0.0
2017-Oct-01 03:28N 33°44' W 118°10'0 0.0
2017-Oct-01 02:58N 33°44' W 118°10'0 0.0
2017-Sep-30 01:58N 33°44' W 118°10'0 0.0
2017-Sep-30 01:28N 33°44' W 118°10'0 0.0
2017-Sep-30 00:58N 33°44' W 118°10'0 0.0
2017-Sep-30 00:28N 33°44' W 118°10'0 0.0
2017-Sep-29 23:55N 33°44' W 118°10'0 0.1
2017-Sep-29 23:28N 33°44' W 118°10'0 0.0
2017-Sep-29 22:58N 33°44' W 118°10'0 0.0
2017-Sep-29 22:28N 33°44' W 118°10'0 0.0
2017-Sep-29 21:58N 33°44' W 118°10'0 0.0
2017-Sep-29 21:28N 33°44' W 118°10'0 0.0
2017-Sep-29 20:58N 33°44' W 118°10'0 0.0
2017-Sep-29 20:28N 33°44' W 118°10'0 0.0
2017-Sep-29 19:58N 33°44' W 118°10'0 0.0
2017-Sep-29 19:28N 33°44' W 118°10'0 0.0
2017-Sep-29 18:58N 33°44' W 118°10'0 0.2
2017-Sep-29 18:28N 33°44' W 118°10'0 0.1
2017-Sep-29 17:58N 33°44' W 118°10'0 0.1
2017-Sep-29 17:28N 33°44' W 118°10'0 0.0
2017-Sep-29 16:58N 33°44' W 118°10'0 0.0
2017-Sep-29 16:28N 33°44' W 118°10'0 0.0
2017-Sep-29 15:58N 33°44' W 118°10'0 0.0
2017-Sep-29 15:28N 33°44' W 118°10'0 0.1
2017-Sep-29 14:58N 33°44' W 118°10'0 0.0
2017-Sep-29 14:28N 33°44' W 118°10'0 0.0
2017-Sep-29 13:58N 33°44' W 118°10'0 0.0
2017-Sep-29 13:25N 33°44' W 118°10'0 0.0
2017-Sep-29 12:58N 33°44' W 118°10'0 0.0
2017-Sep-29 12:28N 33°44' W 118°10'0 0.0
2017-Sep-29 11:58N 33°44' W 118°10'0 0.0
2017-Sep-29 11:25N 33°44' W 118°10'0 0.0
2017-Sep-29 10:55N 33°44' W 118°10'0 0.0
2017-Sep-29 10:28N 33°44' W 118°10'0 0.0
2017-Sep-29 09:58N 33°44' W 118°10'0 0.1
2017-Sep-29 09:28N 33°44' W 118°10'0 0.1
2017-Sep-29 08:58N 33°44' W 118°10'0 0.0
2017-Sep-29 08:28N 33°44' W 118°10'0 0.0
2017-Sep-29 07:58N 33°44' W 118°10'0 0.0
2017-Sep-29 07:28N 33°44' W 118°10'0 0.1
2017-Sep-29 06:55N 33°44' W 118°10'0 0.1
2017-Sep-29 06:28N 33°44' W 118°10'0 0.1
2017-Sep-29 05:58N 33°44' W 118°10'0 0.1
2017-Sep-29 05:28N 33°44' W 118°10'0 0.1
2017-Sep-29 04:55N 33°44' W 118°10'0 0.1
2017-Sep-29 04:28N 33°44' W 118°10'0 0.0
2017-Sep-29 03:55N 33°44' W 118°10'0 0.0
2017-Sep-29 03:28N 33°44' W 118°10'0 0.1
2017-Sep-29 02:58N 33°44' W 118°10'0 0.0
2017-Sep-29 02:28N 33°44' W 118°10'0 0.0
2017-Sep-29 01:58N 33°44' W 118°10'0 0.0
2017-Sep-29 01:28N 33°44' W 118°10'0 0.0
2017-Sep-29 00:58N 33°44' W 118°10'0 0.0
2017-Sep-29 00:28N 33°44' W 118°10'0 0.1
2017-Sep-28 23:58N 33°44' W 118°10'0 0.0
2017-Sep-28 23:28N 33°44' W 118°10'0 0.0
2017-Sep-28 22:58N 33°44' W 118°10'0 0.0
2017-Sep-28 22:28N 33°44' W 118°10'0 0.0
2017-Sep-28 21:58N 33°44' W 118°10'0 0.0
2017-Sep-28 21:28N 33°44' W 118°10'0 0.0
2017-Sep-28 20:58N 33°44' W 118°10'0 0.0
2017-Sep-28 20:28N 33°44' W 118°10'0 0.0
2017-Sep-28 19:58N 33°44' W 118°10'0 0.1
2017-Sep-28 19:28N 33°44' W 118°10'0 0.1
2017-Sep-28 18:58N 33°44' W 118°10'0 0.3
2017-Sep-28 18:28N 33°44' W 118°10'0 0.1
2017-Sep-28 17:58N 33°44' W 118°10'0 0.5
2017-Sep-28 17:30N 33°44' W 118°10'4 7.1
2017-Sep-28 17:00N 33°43' W 118°14'3 5.2
2017-Sep-28 16:30N 33°45' W 118°17'1 2.8
2017-Sep-28 16:00N 33°46' W 118°16'0 0.0
2017-Sep-28 15:29N 33°46' W 118°16'0 0.0
2017-Sep-28 14:59N 33°46' W 118°16'0 0.0
2017-Sep-28 13:59N 33°46' W 118°16'0 0.0
2017-Sep-28 13:05N 33°46' W 118°16'0 0.0
2017-Sep-28 12:59N 33°46' W 118°16'0 0.0
2017-Sep-28 12:29N 33°46' W 118°16'0 0.0
2017-Sep-28 11:56N 33°46' W 118°16'0 0.0
2017-Sep-28 11:23N 33°46' W 118°16'0 0.0
2017-Sep-28 10:56N 33°46' W 118°16'0 0.0
2017-Sep-28 10:29N 33°46' W 118°16'0 0.0
2017-Sep-28 09:59N 33°46' W 118°16'0 0.0
2017-Sep-28 09:11N 33°46' W 118°16'0 0.0
2017-Sep-28 08:56N 33°46' W 118°16'0 0.0
2017-Sep-28 08:29N 33°46' W 118°16'0 0.0
2017-Sep-28 07:59N 33°46' W 118°16'0 0.0
2017-Sep-28 07:29N 33°46' W 118°16'0 0.0
2017-Sep-28 06:59N 33°46' W 118°16'0 0.0
2017-Sep-28 06:29N 33°46' W 118°16'0 0.0
2017-Sep-28 04:41N 33°46' W 118°16'0 0.0
2017-Sep-28 04:29N 33°46' W 118°16'0 0.0
2017-Sep-28 03:53N 33°46' W 118°16'0 0.0
2017-Sep-28 03:29N 33°46' W 118°16'0 0.0
2017-Sep-28 01:05N 33°46' W 118°16'0 0.0
2017-Sep-27 23:59N 33°46' W 118°16'0 0.0
2017-Sep-27 22:35N 33°46' W 118°16'0 0.0
2017-Sep-27 22:29N 33°46' W 118°16'0 0.0
2017-Sep-27 21:59N 33°46' W 118°16'0 0.0
2017-Sep-27 19:59N 33°46' W 118°16'0 0.0
2017-Sep-27 19:29N 33°46' W 118°16'0 0.0
2017-Sep-27 18:59N 33°46' W 118°16'0 0.0
2017-Sep-27 18:29N 33°46' W 118°16'0 0.0
2017-Sep-27 17:59N 33°46' W 118°16'0 0.0
2017-Sep-27 17:23N 33°46' W 118°16'0 0.0
2017-Sep-27 16:53N 33°46' W 118°16'  
Track history (hours):
 
Tides and Currents Weather Stations Pressure Air Temp Water Temp Dewpoint Dewpoint Depression Visibility Wind Speed Wind Dir Waves Ship Positions

Nicopolis

Last reported at 2017-Oct-07 14:52 UTC. Time now 2017-Oct-18 11:21 UTC.
Position N 33°57' W 124°07'.
Warning: this ship's position is 10 days out of date.

Length 228 m; draft 9 m.

Type: Tanker. MMSI: 241528000.

Date/timePositionNaut miles runAvg speedWind from/ knotsBaromVisibWave heightAir tempDewpointWater temp
2017-Oct-07 14:52N 33°57' W 124°07'513.5
2017-Oct-07 14:30N 33°58' W 124°01'713.8
2017-Oct-07 14:00N 33°59' W 123°53'813.5
2017-Oct-07 13:23N 34°01' W 123°43'513.4
2017-Oct-07 13:00N 34°02' W 123°37'713.4
2017-Oct-07 12:30N 34°03' W 123°29'713.4
2017-Oct-07 12:00N 34°04' W 123°21'713.6
2017-Oct-07 11:31N 34°05' W 123°13'813.5
2017-Oct-07 10:53N 34°07' W 123°03'1113.3
2017-Oct-07 10:05N 34°08' W 122°51'113.3
2017-Oct-07 10:00N 34°09' W 122°50'713.3
2017-Oct-07 09:30N 34°10' W 122°42'713.2
2017-Oct-07 09:01N 34°11' W 122°34'713.5
2017-Oct-07 08:30N 34°12' W 122°26'612.8
2017-Oct-07 08:01N 34°13' W 122°18'813.1
2017-Oct-07 07:22N 34°15' W 122°08'613.5
2017-Oct-07 06:58N 34°16' W 122°02'613.5
2017-Oct-07 06:30N 34°17' W 121°54'613.1
2017-Oct-07 06:00N 34°18' W 121°46'713.4
2017-Oct-07 05:28N 34°19' W 121°38'713.8
2017-Oct-07 04:57N 34°21' W 121°29'614.1
2017-Oct-07 04:31N 34°22' W 121°22'713.7
2017-Oct-07 03:58N 34°23' W 121°13'713.9
2017-Oct-07 03:30N 34°24' W 121°05'714.0
2017-Oct-07 02:59N 34°25' W 120°57'713.4
2017-Oct-07 02:30N 34°26' W 120°49'612.8
2017-Oct-07 02:00N 34°24' W 120°41'612.3
2017-Oct-07 01:30N 34°22' W 120°34'612.1
2017-Oct-07 01:00N 34°21' W 120°27'612.4
2017-Oct-07 00:30N 34°19' W 120°20'612.3
2017-Oct-07 00:00N 34°17' W 120°13'611.9
2017-Oct-06 23:31N 34°16' W 120°06'611.8
2017-Oct-06 23:00N 34°14' W 119°59'611.9
2017-Oct-06 22:30N 34°13' W 119°52'612.2
2017-Oct-06 22:00N 34°11' W 119°45'611.9
2017-Oct-06 21:30N 34°09' W 119°38'612.3
2017-Oct-06 21:00N 34°08' W 119°31'612.4
2017-Oct-06 20:31N 34°06' W 119°24'612.4
2017-Oct-06 20:01N 34°05' W 119°16'612.1
2017-Oct-06 19:31N 34°02' W 119°10'612.1
2017-Oct-06 19:01N 33°59' W 119°04'611.6
2017-Oct-06 18:30N 33°56' W 118°58'611.8
2017-Oct-06 18:00N 33°53' W 118°51'611.5
2017-Oct-06 17:31N 33°50' W 118°45'611.6
2017-Oct-06 17:00N 33°47' W 118°39'611.8
2017-Oct-06 16:31N 33°44' W 118°33'611.6
2017-Oct-06 16:01N 33°41' W 118°27'611.5
2017-Oct-06 15:31N 33°39' W 118°21'611.5
2017-Oct-06 15:01N 33°39' W 118°14'4 8.9
2017-Oct-06 14:30N 33°42' W 118°11'2 4.4
2017-Oct-06 14:00N 33°43' W 118°14'0 0.0
2017-Oct-06 13:30N 33°43' W 118°14'0 0.0
2017-Oct-06 13:00N 33°43' W 118°14'0 0.1
2017-Oct-06 12:30N 33°43' W 118°14'0 0.0
2017-Oct-06 11:51N 33°43' W 118°14'0 0.0
2017-Oct-06 11:30N 33°43' W 118°14'0 0.0
2017-Oct-06 11:00N 33°43' W 118°14'0 0.0
2017-Oct-06 10:30N 33°43' W 118°14'0 0.0
2017-Oct-06 10:00N 33°43' W 118°14'0 0.1
2017-Oct-06 09:30N 33°43' W 118°14'0 0.0
2017-Oct-06 09:00N 33°43' W 118°14'0 0.0
2017-Oct-06 08:30N 33°43' W 118°14'0 0.0
2017-Oct-06 07:57N 33°43' W 118°14'0 0.0
2017-Oct-06 07:30N 33°43' W 118°14'0 0.0
2017-Oct-06 07:00N 33°43' W 118°14'0 0.0
2017-Oct-06 06:30N 33°43' W 118°14'0 0.0
2017-Oct-06 06:00N 33°43' W 118°14'0 0.1
2017-Oct-06 05:30N 33°43' W 118°14'0 0.1
2017-Oct-06 05:00N 33°43' W 118°14'0 0.1
2017-Oct-06 04:30N 33°43' W 118°14'0 0.1
2017-Oct-06 04:00N 33°43' W 118°14'0 0.0
2017-Oct-06 03:30N 33°43' W 118°14'0 0.1
2017-Oct-06 02:57N 33°43' W 118°14'0 0.0
2017-Oct-06 02:30N 33°43' W 118°14'0 0.0
2017-Oct-06 02:00N 33°43' W 118°14'0 0.2
2017-Oct-06 01:30N 33°43' W 118°14'0 0.9
2017-Oct-06 01:01N 33°43' W 118°14'3 5.2
2017-Oct-06 00:30N 33°45' W 118°16'0 0.8
2017-Oct-06 00:00N 33°45' W 118°16'0 0.0
2017-Oct-05 23:07N 33°45' W 118°16'0 0.0
2017-Oct-05 22:55N 33°45' W 118°16'0 0.0
2017-Oct-05 22:28N 33°45' W 118°16'0 0.0
2017-Oct-05 21:55N 33°45' W 118°16'0 0.0
2017-Oct-05 21:28N 33°45' W 118°16'0 0.0
2017-Oct-05 20:58N 33°45' W 118°16'0 0.0
2017-Oct-05 20:19N 33°45' W 118°16'0 0.0
2017-Oct-05 19:49N 33°45' W 118°16'0 0.0
2017-Oct-05 19:28N 33°45' W 118°16'0 0.0
2017-Oct-05 18:55N 33°45' W 118°16'0 0.0
2017-Oct-05 18:25N 33°45' W 118°16'0 0.0
2017-Oct-05 17:55N 33°45' W 118°16'0 0.0
2017-Oct-05 17:25N 33°45' W 118°16'0 0.0
2017-Oct-05 16:55N 33°45' W 118°16'0 0.0
2017-Oct-05 15:28N 33°45' W 118°16'0 0.0
2017-Oct-05 14:43N 33°45' W 118°16'0 0.0
2017-Oct-05 14:19N 33°45' W 118°16'0 0.0
2017-Oct-05 13:58N 33°45' W 118°16'0 0.0
2017-Oct-05 13:16N 33°45' W 118°16'0 0.0
2017-Oct-05 12:55N 33°45' W 118°16'0 0.0
2017-Oct-05 12:25N 33°45' W 118°16'0 0.0
2017-Oct-05 11:58N 33°45' W 118°16'0 0.0
2017-Oct-05 11:28N 33°45' W 118°16'0 0.0
2017-Oct-05 10:58N 33°45' W 118°16'0 0.0
2017-Oct-05 10:25N 33°45' W 118°16'0 0.0
2017-Oct-05 09:58N 33°45' W 118°16'0 0.0
2017-Oct-05 09:28N 33°45' W 118°16'0 0.0
2017-Oct-05 08:58N 33°45' W 118°16'0 0.0
2017-Oct-05 08:13N 33°45' W 118°16'0 0.0
2017-Oct-05 07:49N 33°45' W 118°16'0 0.0
2017-Oct-05 07:19N 33°45' W 118°16'0 0.0
2017-Oct-05 06:58N 33°45' W 118°16'0 0.0
2017-Oct-05 06:28N 33°45' W 118°16'0 0.0
2017-Oct-05 05:55N 33°45' W 118°16'0 0.0
2017-Oct-05 05:25N 33°45' W 118°16'0 0.0
2017-Oct-05 04:55N 33°45' W 118°16'0 0.0
2017-Oct-05 04:28N 33°45' W 118°16'0 0.0
2017-Oct-05 03:58N 33°45' W 118°16'0 0.0
2017-Oct-05 03:25N 33°45' W 118°16'0 0.0
2017-Oct-05 02:55N 33°45' W 118°16'0 0.0
2017-Oct-05 02:28N 33°45' W 118°16'0 0.0
2017-Oct-05 01:55N 33°45' W 118°16'0 0.0
2017-Oct-05 01:28N 33°45' W 118°16'0 0.0
2017-Oct-05 00:55N 33°45' W 118°16'0 0.0
2017-Oct-05 00:28N 33°45' W 118°16'0 0.0
2017-Oct-04 23:37N 33°45' W 118°16'0 0.0
2017-Oct-04 23:13N 33°45' W 118°16'0 0.0
2017-Oct-04 22:55N 33°45' W 118°16'0 0.0
2017-Oct-04 22:25N 33°45' W 118°16'0 0.0
2017-Oct-04 21:58N 33°45' W 118°16'0 0.0
2017-Oct-04 21:28N 33°45' W 118°16'0 0.0
2017-Oct-04 20:52N 33°45' W 118°16'0 0.0
2017-Oct-04 19:49N 33°45' W 118°16'0 0.0
2017-Oct-04 11:01N 33°45' W 118°16'0 0.0
2017-Oct-04 11:00N 33°45' W 118°16'2 3.0
2017-Oct-04 10:11N 33°43' W 118°16'2 7.8
2017-Oct-04 09:59N 33°43' W 118°14'3 6.8
2017-Oct-04 09:30N 33°44' W 118°10'0 0.1
2017-Oct-04 08:52N 33°44' W 118°10'0 0.0
2017-Oct-04 08:28N 33°44' W 118°10'0 0.0
2017-Oct-04 06:58N 33°44' W 118°10'0 0.0
2017-Oct-04 05:58N 33°44' W 118°10'0 0.0
2017-Oct-04 04:58N 33°44' W 118°10'0 0.1
2017-Oct-04 02:28N 33°44' W 118°10'0 0.0
2017-Oct-03 23:28N 33°44' W 118°10'0 0.1
2017-Oct-03 22:58N 33°44' W 118°10'0 0.0
2017-Oct-03 21:28N 33°44' W 118°10'0 0.0
2017-Oct-03 17:58N 33°44' W 118°10'0 0.0
2017-Oct-03 13:52N 33°44' W 118°10'0 0.2
2017-Oct-03 13:22N 33°44' W 118°10'0 0.1
2017-Oct-03 12:40N 33°44' W 118°10'0 0.1
2017-Oct-03 12:22N 33°44' W 118°10'0 0.1
2017-Oct-03 11:58N 33°44' W 118°10'0 0.0
2017-Oct-03 11:22N 33°44' W 118°10'0 0.0
2017-Oct-03 10:43N 33°44' W 118°10'0 0.2
2017-Oct-03 10:25N 33°44' W 118°10'0 0.1
2017-Oct-03 09:07N 33°44' W 118°10'0 0.0
2017-Oct-03 08:52N 33°44' W 118°10'0 0.0
2017-Oct-03 07:46N 33°44' W 118°10'0 0.0
2017-Oct-03 07:28N 33°44' W 118°10'0 0.0
2017-Oct-03 06:58N 33°44' W 118°10'0 0.0
2017-Oct-03 06:28N 33°44' W 118°10'0 0.0
2017-Oct-03 05:58N 33°44' W 118°10'0 0.1
2017-Oct-03 05:28N 33°44' W 118°10'0 0.1
2017-Oct-03 04:40N 33°44' W 118°10'0 0.1
2017-Oct-03 04:22N 33°44' W 118°10'0 0.1
2017-Oct-03 03:58N 33°44' W 118°10'0 0.1
2017-Oct-03 03:22N 33°44' W 118°10'0 0.0
2017-Oct-03 02:58N 33°44' W 118°10'0 0.0
2017-Oct-03 02:28N 33°44' W 118°10'0 0.0
2017-Oct-03 01:55N 33°44' W 118°10'0 0.0
2017-Oct-03 01:22N 33°44' W 118°10'0 0.0
2017-Oct-03 00:58N 33°44' W 118°10'0 0.0
2017-Oct-03 00:22N 33°44' W 118°10'0 0.1
2017-Oct-02 23:58N 33°44' W 118°10'0 0.0
2017-Oct-02 23:28N 33°44' W 118°10'0 0.0
2017-Oct-02 22:46N 33°44' W 118°10'0 0.0
2017-Oct-02 22:22N 33°44' W 118°10'0 0.0
2017-Oct-02 21:52N 33°44' W 118°10'0 0.0
2017-Oct-02 21:28N 33°44' W 118°10'0 0.1
2017-Oct-02 20:40N 33°44' W 118°10'0 0.0
2017-Oct-02 20:22N 33°44' W 118°10'0 0.0
2017-Oct-02 19:04N 33°44' W 118°10'0 0.1
2017-Oct-02 18:58N 33°44' W 118°10'0 0.0
2017-Oct-02 18:28N 33°44' W 118°10'0 0.0
2017-Oct-02 17:58N 33°44' W 118°10'0 0.0
2017-Oct-02 17:22N 33°44' W 118°10'0 0.0
2017-Oct-02 14:46N 33°44' W 118°10'0 0.0
2017-Oct-02 14:22N 33°44' W 118°10'0 0.1
2017-Oct-02 13:58N 33°44' W 118°10'0 0.1
2017-Oct-02 13:28N 33°44' W 118°10'0 0.1
2017-Oct-02 12:58N 33°44' W 118°10'0 0.1
2017-Oct-02 12:22N 33°44' W 118°10'0 0.0
2017-Oct-02 11:52N 33°44' W 118°10'0 0.0
2017-Oct-02 08:04N 33°44' W 118°10'0 0.0
2017-Oct-02 05:31N 33°44' W 118°10'0 0.0
2017-Oct-02 05:28N 33°44' W 118°10'0 0.0
2017-Oct-02 04:40N 33°44' W 118°10'0 0.0
2017-Oct-02 03:52N 33°44' W 118°10'0 0.1
2017-Oct-02 02:49N 33°44' W 118°10'0 0.0
2017-Oct-02 02:28N 33°44' W 118°10'0 0.0
2017-Oct-02 01:46N 33°44' W 118°10'0 0.0
2017-Oct-02 01:28N 33°44' W 118°10'0 0.0
2017-Oct-02 00:58N 33°44' W 118°10'0 0.0
2017-Oct-02 00:28N 33°44' W 118°10'0 0.1
2017-Oct-01 23:55N 33°44' W 118°10'0 0.0
2017-Oct-01 23:22N 33°44' W 118°10'0 0.1
2017-Oct-01 22:22N 33°44' W 118°10'0 0.1
2017-Oct-01 21:52N 33°44' W 118°10'0 0.0
2017-Oct-01 21:28N 33°44' W 118°10'0 0.1
2017-Oct-01 20:58N 33°44' W 118°10'0 0.0
2017-Oct-01 19:52N 33°44' W 118°10'0 0.0
2017-Oct-01 19:22N 33°44' W 118°10'0 0.1
2017-Oct-01 18:49N 33°44' W 118°10'0 0.1
2017-Oct-01 18:19N 33°44' W 118°10'0 0.1
2017-Oct-01 17:52N 33°44' W 118°10'0 0.0
2017-Oct-01 17:28N 33°44' W 118°10'0 0.0
2017-Oct-01 16:58N 33°44' W 118°10'0 0.0
2017-Oct-01 16:28N 33°44' W 118°10'0 0.1
2017-Oct-01 15:58N 33°44' W 118°10'0 0.0
2017-Oct-01 15:28N 33°44' W 118°10'0 0.0
2017-Oct-01 14:58N 33°44' W 118°10'0 0.0
2017-Oct-01 14:25N 33°44' W 118°10'0 0.0
2017-Oct-01 13:58N 33°44' W 118°10'0 0.0
2017-Oct-01 13:28N 33°44' W 118°10'0 0.1
2017-Oct-01 12:58N 33°44' W 118°10'0 0.1
2017-Oct-01 12:25N 33°44' W 118°10'0 0.1
2017-Oct-01 11:58N 33°44' W 118°10'0 0.0
2017-Oct-01 11:28N 33°44' W 118°10'0 0.0
2017-Oct-01 10:58N 33°44' W 118°10'0 0.0
2017-Oct-01 10:28N 33°44' W 118°10'0 0.0
2017-Oct-01 09:58N 33°44' W 118°10'0 0.1
2017-Oct-01 09:28N 33°44' W 118°10'0 0.2
2017-Oct-01 08:58N 33°44' W 118°10'0 0.2
2017-Oct-01 08:28N 33°44' W 118°10'0 0.1
2017-Oct-01 07:58N 33°44' W 118°10'0 0.0
2017-Oct-01 07:28N 33°44' W 118°10'0 0.0
2017-Oct-01 06:58N 33°44' W 118°10'0 0.0
2017-Oct-01 06:28N 33°44' W 118°10'0 0.0
2017-Oct-01 05:58N 33°44' W 118°10'0 0.0
2017-Oct-01 05:28N 33°44' W 118°10'0 0.0
2017-Oct-01 04:58N 33°44' W 118°10'0 0.0
2017-Oct-01 04:28N 33°44' W 118°10'0 0.0
2017-Oct-01 03:55N 33°44' W 118°10'0 0.0
2017-Oct-01 03:28N 33°44' W 118°10'0 0.0
2017-Oct-01 02:58N 33°44' W 118°10'0 0.0
2017-Sep-30 01:58N 33°44' W 118°10'0 0.0
2017-Sep-30 01:28N 33°44' W 118°10'0 0.0
2017-Sep-30 00:58N 33°44' W 118°10'0 0.0
2017-Sep-30 00:28N 33°44' W 118°10'0 0.0
2017-Sep-29 23:55N 33°44' W 118°10'0 0.1
2017-Sep-29 23:28N 33°44' W 118°10'0 0.0
2017-Sep-29 22:58N 33°44' W 118°10'0 0.0
2017-Sep-29 22:28N 33°44' W 118°10'0 0.0
2017-Sep-29 21:58N 33°44' W 118°10'0 0.0
2017-Sep-29 21:28N 33°44' W 118°10'0 0.0
2017-Sep-29 20:58N 33°44' W 118°10'0 0.0
2017-Sep-29 20:28N 33°44' W 118°10'0 0.0
2017-Sep-29 19:58N 33°44' W 118°10'0 0.0
2017-Sep-29 19:28N 33°44' W 118°10'0 0.0
2017-Sep-29 18:58N 33°44' W 118°10'0 0.2
2017-Sep-29 18:28N 33°44' W 118°10'0 0.1
2017-Sep-29 17:58N 33°44' W 118°10'0 0.1
2017-Sep-29 17:28N 33°44' W 118°10'0 0.0
2017-Sep-29 16:58N 33°44' W 118°10'0 0.0
2017-Sep-29 16:28N 33°44' W 118°10'0 0.0
2017-Sep-29 15:58N 33°44' W 118°10'0 0.0
2017-Sep-29 15:28N 33°44' W 118°10'0 0.1
2017-Sep-29 14:58N 33°44' W 118°10'0 0.0
2017-Sep-29 14:28N 33°44' W 118°10'0 0.0
2017-Sep-29 13:58N 33°44' W 118°10'0 0.0
2017-Sep-29 13:25N 33°44' W 118°10'0 0.0
2017-Sep-29 12:58N 33°44' W 118°10'0 0.0
2017-Sep-29 12:28N 33°44' W 118°10'0 0.0
2017-Sep-29 11:58N 33°44' W 118°10'0 0.0
2017-Sep-29 11:25N 33°44' W 118°10'0 0.0
2017-Sep-29 10:55N 33°44' W 118°10'0 0.0
2017-Sep-29 10:28N 33°44' W 118°10'0 0.0
2017-Sep-29 09:58N 33°44' W 118°10'0 0.1
2017-Sep-29 09:28N 33°44' W 118°10'0 0.1
2017-Sep-29 08:58N 33°44' W 118°10'0 0.0
2017-Sep-29 08:28N 33°44' W 118°10'0 0.0
2017-Sep-29 07:58N 33°44' W 118°10'0 0.0
2017-Sep-29 07:28N 33°44' W 118°10'0 0.1
2017-Sep-29 06:55N 33°44' W 118°10'0 0.1
2017-Sep-29 06:28N 33°44' W 118°10'0 0.1
2017-Sep-29 05:58N 33°44' W 118°10'0 0.1
2017-Sep-29 05:28N 33°44' W 118°10'0 0.1
2017-Sep-29 04:55N 33°44' W 118°10'0 0.1
2017-Sep-29 04:28N 33°44' W 118°10'0 0.0
2017-Sep-29 03:55N 33°44' W 118°10'0 0.0
2017-Sep-29 03:28N 33°44' W 118°10'0 0.1
2017-Sep-29 02:58N 33°44' W 118°10'0 0.0
2017-Sep-29 02:28N 33°44' W 118°10'0 0.0
2017-Sep-29 01:58N 33°44' W 118°10'0 0.0
2017-Sep-29 01:28N 33°44' W 118°10'0 0.0
2017-Sep-29 00:58N 33°44' W 118°10'0 0.0
2017-Sep-29 00:28N 33°44' W 118°10'0 0.1
2017-Sep-28 23:58N 33°44' W 118°10'0 0.0
2017-Sep-28 23:28N 33°44' W 118°10'0 0.0
2017-Sep-28 22:58N 33°44' W 118°10'0 0.0
2017-Sep-28 22:28N 33°44' W 118°10'0 0.0
2017-Sep-28 21:58N 33°44' W 118°10'0 0.0
2017-Sep-28 21:28N 33°44' W 118°10'0 0.0
2017-Sep-28 20:58N 33°44' W 118°10'0 0.0
2017-Sep-28 20:28N 33°44' W 118°10'0 0.0
2017-Sep-28 19:58N 33°44' W 118°10'0 0.1
2017-Sep-28 19:28N 33°44' W 118°10'0 0.1
2017-Sep-28 18:58N 33°44' W 118°10'0 0.3
2017-Sep-28 18:28N 33°44' W 118°10'0 0.1
2017-Sep-28 17:58N 33°44' W 118°10'0 0.5
2017-Sep-28 17:30N 33°44' W 118°10'4 7.1
2017-Sep-28 17:00N 33°43' W 118°14'3 5.2
2017-Sep-28 16:30N 33°45' W 118°17'1 2.8
2017-Sep-28 16:00N 33°46' W 118°16'0 0.0
2017-Sep-28 15:29N 33°46' W 118°16'0 0.0
2017-Sep-28 14:59N 33°46' W 118°16'0 0.0
2017-Sep-28 13:59N 33°46' W 118°16'0 0.0
2017-Sep-28 13:05N 33°46' W 118°16'0 0.0
2017-Sep-28 12:59N 33°46' W 118°16'0 0.0
2017-Sep-28 12:29N 33°46' W 118°16'0 0.0
2017-Sep-28 11:56N 33°46' W 118°16'0 0.0
2017-Sep-28 11:23N 33°46' W 118°16'0 0.0
2017-Sep-28 10:56N 33°46' W 118°16'0 0.0
2017-Sep-28 10:29N 33°46' W 118°16'0 0.0
2017-Sep-28 09:59N 33°46' W 118°16'0 0.0
2017-Sep-28 09:11N 33°46' W 118°16'0 0.0
2017-Sep-28 08:56N 33°46' W 118°16'0 0.0
2017-Sep-28 08:29N 33°46' W 118°16'0 0.0
2017-Sep-28 07:59N 33°46' W 118°16'0 0.0
2017-Sep-28 07:29N 33°46' W 118°16'0 0.0
2017-Sep-28 06:59N 33°46' W 118°16'0 0.0
2017-Sep-28 06:29N 33°46' W 118°16'0 0.0
2017-Sep-28 04:41N 33°46' W 118°16'0 0.0
2017-Sep-28 04:29N 33°46' W 118°16'0 0.0
2017-Sep-28 03:53N 33°46' W 118°16'0 0.0
2017-Sep-28 03:29N 33°46' W 118°16'0 0.0
2017-Sep-28 01:05N 33°46' W 118°16'0 0.0
2017-Sep-27 23:59N 33°46' W 118°16'0 0.0
2017-Sep-27 22:35N 33°46' W 118°16'0 0.0
2017-Sep-27 22:29N 33°46' W 118°16'0 0.0
2017-Sep-27 21:59N 33°46' W 118°16'0 0.0
2017-Sep-27 19:59N 33°46' W 118°16'0 0.0
2017-Sep-27 19:29N 33°46' W 118°16'0 0.0
2017-Sep-27 18:59N 33°46' W 118°16'0 0.0
2017-Sep-27 18:29N 33°46' W 118°16'0 0.0
2017-Sep-27 17:59N 33°46' W 118°16'0 0.0
2017-Sep-27 17:23N 33°46' W 118°16'0 0.0
2017-Sep-27 16:53N 33°46' W 118°16'  

Dump ship's entire track history